createdAt,value
2018-04-06T00:01:22.035Z,6.80
2018-04-06T00:03:50.882Z,7.00
2018-04-06T00:06:19.724Z,7.00
2018-04-06T00:08:49.353Z,6.80
2018-04-06T00:11:18.978Z,6.90
2018-04-06T00:13:47.834Z,6.80
2018-04-06T00:16:17.440Z,6.90
2018-04-06T00:18:47.064Z,7.00
2018-04-06T00:21:16.686Z,7.00
2018-04-06T00:23:45.967Z,7.00
2018-04-06T00:26:15.568Z,7.00
2018-04-06T00:28:45.198Z,7.00
2018-04-06T00:31:14.055Z,7.00
2018-04-06T00:33:42.918Z,7.00
2018-04-06T00:36:11.730Z,7.00
2018-04-06T00:38:41.358Z,7.00
2018-04-06T00:41:10.974Z,7.00
2018-04-06T00:43:40.570Z,7.00
2018-04-06T00:46:09.424Z,7.00
2018-04-06T00:48:38.254Z,6.90
2018-04-06T00:51:07.099Z,6.90
2018-04-06T00:53:47.950Z,6.70
2018-04-06T00:56:16.790Z,6.70
2018-04-06T00:58:45.630Z,6.80
2018-04-06T01:01:14.483Z,6.80
2018-04-06T01:03:43.326Z,6.70
2018-04-06T01:06:12.948Z,6.50
2018-04-06T01:08:42.578Z,6.50
2018-04-06T01:11:11.440Z,6.40
2018-04-06T01:13:41.994Z,6.30
2018-04-06T01:16:10.882Z,6.30
2018-04-06T01:18:39.700Z,6.30
2018-04-06T01:21:08.541Z,6.20
2018-04-06T01:23:38.782Z,6.10
2018-04-06T01:26:07.634Z,6.10
2018-04-06T01:28:36.488Z,6.10
2018-04-06T01:31:05.326Z,6.00
2018-04-06T01:33:34.464Z,6.00
2018-04-06T01:36:03.322Z,6.10
2018-04-06T01:38:32.924Z,6.10
2018-04-06T01:41:02.526Z,6.10
2018-04-06T01:43:31.610Z,6.00
2018-04-06T01:46:00.442Z,6.00
2018-04-06T01:48:29.291Z,6.20
2018-04-06T01:50:58.941Z,6.20
2018-04-06T01:53:28.557Z,6.10
2018-04-06T01:55:58.087Z,6.10
2018-04-06T01:58:26.931Z,6.00
2018-04-06T02:00:56.530Z,6.00
2018-04-06T02:03:26.166Z,6.20
2018-04-06T02:05:55.012Z,6.10
2018-04-06T02:08:24.358Z,6.20
2018-04-06T02:10:53.212Z,6.20
2018-04-06T02:13:22.806Z,6.30
2018-04-06T02:15:51.671Z,6.30
2018-04-06T02:18:20.483Z,6.30
2018-04-06T02:20:49.726Z,6.30
2018-04-06T02:23:18.580Z,6.30
2018-04-06T02:25:47.408Z,6.30
2018-04-06T02:28:16.451Z,6.30
2018-04-06T02:30:46.382Z,6.30
2018-04-06T02:33:15.213Z,6.30
2018-04-06T02:35:44.071Z,6.30
2018-04-06T02:38:13.662Z,6.20
2018-04-06T02:40:42.494Z,6.10
2018-04-06T02:43:11.310Z,6.10
2018-04-06T02:45:40.184Z,6.10
2018-04-06T02:48:09.018Z,6.20
2018-04-06T02:50:37.879Z,6.20
2018-04-06T02:53:06.695Z,6.20
2018-04-06T02:55:36.307Z,6.20
2018-04-06T02:58:05.903Z,6.20
2018-04-06T03:00:34.738Z,6.20
2018-04-06T03:03:03.676Z,6.10
2018-04-06T03:05:33.918Z,5.90
2018-04-06T03:08:03.501Z,6.00
2018-04-06T03:10:32.350Z,6.00
2018-04-06T03:13:01.185Z,5.90
2018-04-06T03:15:31.548Z,5.90
2018-04-06T03:18:00.403Z,5.90
2018-04-06T03:20:29.232Z,6.00
2018-04-06T03:22:58.082Z,6.00
2018-04-06T03:25:26.914Z,6.00
2018-04-06T03:27:55.768Z,6.00
2018-04-06T03:30:25.359Z,6.00
2018-04-06T03:32:54.194Z,5.90
2018-04-06T03:35:23.032Z,6.00
2018-04-06T03:37:51.866Z,6.00
2018-04-06T03:40:20.708Z,5.90
2018-04-06T03:42:50.262Z,6.00
2018-04-06T03:45:19.263Z,5.90
2018-04-06T03:47:48.347Z,5.90
2018-04-06T03:50:17.187Z,5.90
2018-04-06T03:52:47.235Z,5.90
2018-04-06T03:55:16.074Z,5.90
2018-04-06T03:57:44.933Z,6.00
2018-04-06T04:00:14.522Z,6.00
2018-04-06T04:02:43.602Z,6.00
2018-04-06T04:05:12.643Z,6.00
2018-04-06T04:07:41.504Z,5.90
2018-04-06T04:10:11.442Z,5.90
2018-04-06T04:12:40.600Z,5.80
2018-04-06T04:15:09.430Z,5.90
2018-04-06T04:17:38.269Z,5.90
2018-04-06T04:20:07.118Z,5.90
2018-04-06T04:22:35.949Z,5.90
2018-04-06T04:25:04.794Z,5.90
2018-04-06T04:27:33.750Z,5.80
2018-04-06T04:30:03.387Z,5.80
2018-04-06T04:32:32.215Z,5.70
2018-04-06T04:35:01.036Z,5.70
2018-04-06T04:37:30.659Z,5.70
2018-04-06T04:39:59.674Z,5.60
2018-04-06T04:42:29.234Z,5.70
2018-04-06T04:44:58.058Z,5.60
2018-04-06T04:47:26.896Z,5.50
2018-04-06T04:49:55.734Z,5.30
2018-04-06T04:52:25.452Z,5.20
2018-04-06T04:54:54.296Z,5.10
2018-04-06T04:57:23.132Z,5.10
2018-04-06T04:59:51.999Z,5.10
2018-04-06T05:02:20.871Z,5.20
2018-04-06T05:04:50.457Z,5.30
2018-04-06T05:07:19.283Z,5.20
2018-04-06T05:09:48.132Z,5.20
2018-04-06T05:12:16.961Z,5.10
2018-04-06T05:14:45.802Z,5.20
2018-04-06T05:17:15.774Z,5.40
2018-04-06T05:19:44.631Z,5.30
2018-04-06T05:22:14.245Z,5.50
2018-04-06T05:24:43.878Z,5.60
2018-04-06T05:27:12.690Z,5.50
2018-04-06T05:29:41.526Z,5.70
2018-04-06T05:32:11.117Z,5.50
2018-04-06T05:34:40.890Z,5.50
2018-04-06T05:37:09.731Z,5.50
2018-04-06T05:39:39.325Z,5.60
2018-04-06T05:42:08.150Z,5.50
2018-04-06T05:44:36.994Z,5.70
2018-04-06T05:47:05.830Z,5.60
2018-04-06T05:49:34.678Z,5.50
2018-04-06T05:52:04.460Z,5.70
2018-04-06T05:54:33.267Z,5.60
2018-04-06T05:57:02.883Z,5.60
2018-04-06T05:59:32.482Z,5.60
2018-04-06T06:02:02.220Z,5.70
2018-04-06T06:04:31.881Z,5.70
2018-04-06T06:07:00.726Z,5.70
2018-04-06T06:09:29.562Z,5.80
2018-04-06T06:11:58.428Z,5.80
2018-04-06T06:14:27.263Z,5.80
2018-04-06T06:16:56.878Z,6.00
2018-04-06T06:19:25.710Z,5.90
2018-04-06T06:21:55.499Z,6.00
2018-04-06T06:24:24.335Z,5.90
2018-04-06T06:26:53.182Z,6.00
2018-04-06T06:29:22.016Z,6.10
2018-04-06T06:31:50.853Z,6.10
2018-04-06T06:34:19.661Z,6.20
2018-04-06T06:36:48.533Z,6.20
2018-04-06T06:39:17.604Z,6.30
2018-04-06T06:41:47.227Z,6.20
2018-04-06T06:44:16.068Z,6.10
2018-04-06T06:46:44.952Z,6.20
2018-04-06T06:49:14.022Z,6.20
2018-04-06T06:51:43.049Z,6.30
2018-04-06T06:54:11.851Z,6.40
2018-04-06T06:56:41.513Z,6.50
2018-04-06T06:59:10.359Z,6.40
2018-04-06T07:01:39.969Z,6.30
2018-04-06T07:04:08.846Z,6.30
2018-04-06T07:06:37.695Z,6.30
2018-04-06T07:09:06.543Z,6.40
2018-04-06T07:11:35.369Z,6.40
2018-04-06T07:14:04.324Z,6.50
2018-04-06T07:16:33.262Z,6.50
2018-04-06T07:19:02.139Z,6.50
2018-04-06T07:21:31.713Z,6.70
2018-04-06T07:24:01.322Z,6.80
2018-04-06T07:26:30.931Z,6.90
2018-04-06T07:29:00.568Z,7.00
2018-04-06T07:31:29.410Z,6.90
2018-04-06T07:33:58.243Z,7.00
2018-04-06T07:36:27.089Z,7.10
2018-04-06T07:38:55.918Z,7.00
2018-04-06T07:41:24.770Z,7.10
2018-04-06T07:43:53.617Z,7.20
2018-04-06T07:46:22.459Z,7.30
2018-04-06T07:48:51.279Z,7.50
2018-04-06T07:51:20.170Z,7.70
2018-04-06T07:53:49.024Z,7.80
2018-04-06T07:56:18.760Z,7.90
2018-04-06T07:58:47.590Z,7.90
2018-04-06T08:01:16.455Z,8.10
2018-04-06T08:03:45.283Z,8.20
2018-04-06T08:06:15.322Z,8.30
2018-04-06T08:08:44.142Z,8.30
2018-04-06T08:11:13.016Z,8.40
2018-04-06T08:13:41.894Z,8.60
2018-04-06T08:16:11.558Z,8.80
2018-04-06T08:18:40.540Z,8.70
2018-04-06T08:21:09.392Z,8.80
2018-04-06T08:23:38.238Z,8.90
2018-04-06T08:26:07.094Z,9.20
2018-04-06T08:28:35.962Z,9.30
2018-04-06T08:31:04.818Z,9.40
2018-04-06T08:33:34.534Z,9.60
2018-04-06T08:36:04.154Z,9.70
2018-04-06T08:38:33.746Z,9.80
2018-04-06T08:41:03.596Z,10.00
2018-04-06T08:43:32.471Z,10.00
2018-04-06T08:46:02.094Z,10.40
2018-04-06T08:48:30.955Z,10.40
2018-04-06T08:51:00.582Z,10.80
2018-04-06T08:53:29.441Z,10.70
2018-04-06T08:55:59.048Z,11.30
2018-04-06T08:58:27.887Z,11.20
2018-04-06T09:00:56.713Z,11.60
2018-04-06T09:03:25.557Z,11.70
2018-04-06T09:05:54.401Z,12.00
2018-04-06T09:08:23.251Z,12.20
2018-04-06T09:10:52.071Z,12.50
2018-04-06T09:13:21.699Z,12.90
2018-04-06T09:15:50.534Z,12.80
2018-04-06T09:18:20.178Z,13.40
2018-04-06T09:20:49.118Z,13.40
2018-04-06T09:23:18.880Z,14.00
2018-04-06T09:25:47.715Z,13.90
2018-04-06T09:28:16.550Z,14.00
2018-04-06T09:30:45.396Z,14.30
2018-04-06T09:33:14.232Z,14.50
2018-04-06T09:35:43.103Z,14.60
2018-04-06T09:38:12.707Z,16.50
2018-04-06T09:40:42.360Z,18.00
2018-04-06T09:43:11.199Z,18.00
2018-04-06T09:45:40.813Z,21.30
2018-04-06T09:48:10.405Z,22.60
2018-04-06T09:50:39.241Z,22.50
2018-04-06T09:53:08.110Z,23.00
2018-04-06T09:55:37.732Z,23.40
2018-04-06T09:58:06.680Z,23.30
2018-04-06T10:00:36.306Z,25.60
2018-04-06T10:03:05.138Z,25.50
2018-04-06T10:05:34.768Z,27.40
2018-04-06T10:08:03.947Z,27.30
2018-04-06T10:10:33.558Z,29.20
2018-04-06T10:13:03.167Z,29.20
2018-04-06T10:15:32.790Z,29.50
2018-04-06T10:18:02.410Z,29.40
2018-04-06T10:20:31.260Z,29.30
2018-04-06T10:23:00.882Z,29.70
2018-04-06T10:25:30.480Z,29.70
2018-04-06T10:28:00.098Z,29.20
2018-04-06T10:30:30.118Z,29.00
2018-04-06T10:32:58.973Z,29.00
2018-04-06T10:35:27.804Z,28.70
2018-04-06T10:37:56.657Z,28.80
2018-04-06T10:40:25.543Z,28.70
2018-04-06T10:42:54.371Z,29.50
2018-04-06T10:45:23.966Z,31.40
2018-04-06T10:47:53.589Z,32.30
2018-04-06T10:50:22.428Z,32.20
2018-04-06T10:52:51.267Z,32.80
2018-04-06T10:55:20.075Z,32.30
2018-04-06T10:57:48.930Z,31.90
2018-04-06T11:00:18.560Z,30.10
2018-04-06T11:02:47.412Z,30.10
2018-04-06T11:05:17.011Z,29.70
2018-04-06T11:07:46.192Z,29.60
2018-04-06T11:10:15.032Z,28.80
2018-04-06T11:12:43.875Z,28.80
2018-04-06T11:15:12.811Z,28.80
2018-04-06T11:17:41.699Z,29.60
2018-04-06T11:20:10.542Z,30.30
2018-04-06T11:22:40.147Z,30.10
2018-04-06T11:25:09.858Z,29.70
2018-04-06T11:27:38.697Z,29.60
2018-04-06T11:30:07.626Z,29.50
2018-04-06T11:32:36.452Z,28.80
2018-04-06T11:35:05.370Z,28.80
2018-04-06T11:37:35.063Z,28.90
2018-04-06T11:40:03.919Z,29.00
2018-04-06T11:42:33.586Z,29.00
2018-04-06T11:45:02.452Z,29.00
2018-04-06T11:47:31.301Z,29.20
2018-04-06T11:50:00.303Z,29.50
2018-04-06T11:52:29.947Z,28.90
2018-04-06T11:54:59.940Z,28.90
2018-04-06T11:57:29.569Z,28.30
2018-04-06T11:59:59.178Z,27.80
2018-04-06T12:02:28.811Z,27.80
2018-04-06T12:04:57.804Z,27.60
2018-04-06T12:07:26.679Z,28.10
2018-04-06T12:09:56.316Z,28.80
2018-04-06T12:12:25.147Z,28.80
2018-04-06T12:14:54.799Z,29.10
2018-04-06T12:17:23.679Z,29.00
2018-04-06T12:19:53.296Z,25.90
2018-04-06T12:22:22.167Z,25.80
2018-04-06T12:24:51.796Z,22.20
2018-04-06T12:27:20.647Z,22.10
2018-04-06T12:29:50.997Z,19.90
2018-04-06T12:32:20.679Z,19.30
2018-04-06T12:34:49.505Z,19.20
2018-04-06T12:37:18.361Z,18.80
2018-04-06T12:39:47.208Z,18.40
2018-04-06T12:42:16.074Z,18.10
2018-04-06T12:44:45.694Z,17.80
2018-04-06T12:47:14.537Z,17.70
2018-04-06T12:49:44.388Z,17.50
2018-04-06T12:52:13.233Z,17.40
